Pagrindinis puslapis
METAR-TAF:

METAR-TAF

Oro uostai :

Zamboanga, Filipinai

platuma: 06-54N, ilguma: 122-04E, Aukštis: 5 m

Dabartinis oras

Ataskaita buvo paskelbta 1 valandą ir 4 minutes, ne 07:00 UTC
Vėjas 7 kt iš Vakarų, svyruoja nuo Pietų/Pietvakarių ir Vakarų
Temperatūra 29°C
Drėgmė 70%
Slėgis 1010 hPa
Matomumas 10 km arba daugiau
Mažai debesys ne aukštis 1700 ft

METAR: RPMZ 230700Z 26007KT 200V280 9999 FEW017 29/23 Q1010 RMK A2983

Laikas: 16:04 (08:04 UTC)

Prognozė

Ataskaita buvo paskelbta 3 valandos ir 4 minutes, ne 05:00 UTC
Prognozė galioja nuo 23 metu 06 UTC su 24 metu 06 UTC
Vėjas 6 kt iš Rytų
Matomumas 10 km arba daugiau
Mažai debesys ne aukštis 1700 ft
Išsisklaidę debesys ne aukštis 30000 ft
Laikinai
nuo 23 metu 06 UTC su 23 metu 12 UTC
Vėjas 4 kt iš Vakarų/Pietvakarių
Mažai debesys ne aukštis 1700 ft

TAF: RPMZ 230500Z 2306/2406 10006KT 9999 FEW017 SCT300 TEMPO 2306/2312 25004KT FEW017

Orai ataskaitas ir orų prognozės (METAR, TAF).

turimą stotys yra geltonos ir raudonos taškus žemėlapyje.

Perkelti pele per norėdami pamatyti stoties vardą.

Tada spustelėkite, norėdami matyti oro stebėjimo ir prognozės.

Norėdami pakeisti žemėlapį: spustelėkite ant žalios mygtukų su juodo kryžiaus žemyn,; žalią mygtuką su brūkšneliu, jei norite nutolinti; arba žalių rodyklių gretimoms žemėlapius.


METAR-TAF: